Welcome to Northern Hawkes Bay. New Zealand.
PWS Header
      nz Flag



Hit Counter


W3C Valid W3C Valid logo


    Wairoa

Select any of the Stations below to visit their websites.










Historic Data from Weather Underground
Select the location of interest below. Wairoa is the default. Please have patience, this Data is slow to load in.
Northern Hawkes Bay Historical Data
Daily Summary for May 3, 2017 Units:  Metric    English   Both
« Previous Day
Next Day »
Daily Weekly Monthly Yearly Custom
  High: Low: Average:
Temperature: 20.0 °C 4.7 °C 12.4 °C
Dew Point: 10.4 °C 4.6 °C 7.6 °C
Humidity: 99% 50% 75%
Wind Speed: 25.6km/h 0.0km/h 7.1km/h
Wind Gust: 39.3km/h - -
Wind- - NW
Pressure: 1020.9 hPa 1010.0 hPa -
Precipitation: 0.0 mm    
Historical Graphs
 
 
Tabular Data for May 3, 2017
Time Temperature Dew Point Pressure Wind Wind Speed Wind Gust Humidity Rainfall Rate (Hourly) solar
00:03 7.0 °C 6.6 °C 1020.5 hPa NNW 3.5 km/h 6.1 km/h 97% 0.0 mm 0 W/m2
00:08 6.8 °C 6.5 °C 1020.5 hPa NW 5.0 km/h 7.2 km/h 98% 0.0 mm 0 W/m2
00:13 6.8 °C 6.5 °C 1020.9 hPa NW 6.1 km/h 8.7 km/h 98% 0.0 mm 0 W/m2
00:18 6.8 °C 6.5 °C 1020.5 hPa NW 5.0 km/h 9.7 km/h 98% 0.0 mm 0 W/m2
00:23 6.7 °C 6.4 °C 1020.5 hPa NW 6.1 km/h 11.1 km/h 98% 0.0 mm 0 W/m2
00:28 6.7 °C 6.4 °C 1020.5 hPa NW 6.1 km/h 11.1 km/h 98% 0.0 mm 0 W/m2
00:33 6.8 °C 6.5 °C 1020.5 hPa NNW 7.2 km/h 11.1 km/h 98% 0.0 mm 0 W/m2
00:38 6.8 °C 6.5 °C 1020.2 hPa NNW 6.1 km/h 11.1 km/h 98% 0.0 mm 0 W/m2
00:43 6.7 °C 6.4 °C 1020.5 hPa NW 5.0 km/h 11.1 km/h 98% 0.0 mm 0 W/m2
00:48 6.7 °C 6.4 °C 1020.2 hPa NNW 5.0 km/h 8.7 km/h 98% 0.0 mm 0 W/m2
00:53 6.6 °C 6.3 °C 1020.2 hPa NNW 5.0 km/h 8.7 km/h 98% 0.0 mm 0 W/m2
00:58 6.5 °C 6.2 °C 1020.2 hPa NW 1.1 km/h 8.7 km/h 98% 0.0 mm 0 W/m2
01:03 6.5 °C 6.2 °C 1020.2 hPa NW 1.1 km/h 9.7 km/h 98% 0.0 mm 0 W/m2
01:08 6.4 °C 6.1 °C 1020.2 hPa Calm   9.7 km/h 98% 0.0 mm 0 W/m2
01:13 6.4 °C 6.1 °C 1019.9 hPa Calm   3.5 km/h 98% 0.0 mm 0 W/m2
01:18 6.3 °C 6.0 °C 1020.2 hPa NW 3.5 km/h 7.2 km/h 98% 0.0 mm 0 W/m2
01:23 6.2 °C 5.9 °C 1020.2 hPa NW 3.5 km/h 7.2 km/h 98% 0.0 mm 0 W/m2
01:28 6.2 °C 5.9 °C 1019.9 hPa NW 5.0 km/h 7.2 km/h 98% 0.0 mm 0 W/m2
01:33 6.3 °C 6.0 °C 1019.9 hPa NNW 3.5 km/h 9.7 km/h 98% 0.0 mm 0 W/m2
01:38 6.2 °C 5.9 °C 1019.9 hPa NNW 7.2 km/h 9.7 km/h 98% 0.0 mm 0 W/m2
01:43 6.2 °C 5.9 °C 1019.9 hPa NNW 5.0 km/h 9.7 km/h 98% 0.0 mm 0 W/m2
01:48 6.2 °C 5.9 °C 1019.9 hPa NNW 6.1 km/h 9.7 km/h 98% 0.0 mm 0 W/m2
01:53 6.1 °C 5.8 °C 1019.9 hPa NNW 6.1 km/h 11.1 km/h 98% 0.0 mm 0 W/m2
01:58 6.0 °C 5.7 °C 1019.9 hPa NW 2.6 km/h 11.1 km/h 98% 0.0 mm 0 W/m2
02:08 5.9 °C 5.8 °C 1019.9 hPa North 7.2 km/h 9.7 km/h 99% 0.0 mm 0 W/m2
02:13 5.9 °C 5.8 °C 1019.9 hPa NNW 6.1 km/h 11.1 km/h 99% 0.0 mm 0 W/m2
02:18 5.8 °C 5.7 °C 1019.9 hPa NW 7.2 km/h 11.1 km/h 99% 0.0 mm 0 W/m2
02:23 5.8 °C 5.7 °C 1019.9 hPa NW 6.1 km/h 11.1 km/h 99% 0.0 mm 0 W/m2
02:28 5.7 °C 5.6 °C 1019.9 hPa NW 5.0 km/h 11.1 km/h 99% 0.0 mm 0 W/m2
02:33 5.7 °C 5.6 °C 1019.9 hPa NNW 3.5 km/h 8.7 km/h 99% 0.0 mm 0 W/m2
02:38 5.7 °C 5.6 °C 1019.9 hPa NNW 2.6 km/h 8.7 km/h 99% 0.0 mm 0 W/m2
02:43 5.7 °C 5.6 °C 1019.5 hPa NNW 1.1 km/h 8.7 km/h 99% 0.0 mm 0 W/m2
02:48 5.7 °C 5.6 °C 1019.5 hPa North 2.6 km/h 7.2 km/h 99% 0.0 mm 0 W/m2
02:53 5.6 °C 5.4 °C 1019.5 hPa North 1.1 km/h 6.1 km/h 99% 0.0 mm 0 W/m2
02:58 5.5 °C 5.3 °C 1019.5 hPa NW 5.0 km/h 7.2 km/h 99% 0.0 mm 0 W/m2
03:03 5.5 °C 5.3 °C 1019.2 hPa NNW 6.1 km/h 8.7 km/h 99% 0.0 mm 0 W/m2
03:08 5.6 °C 5.4 °C 1019.2 hPa NW 2.6 km/h 9.7 km/h 99% 0.0 mm 0 W/m2
03:13 5.5 °C 5.3 °C 1018.8 hPa NW 2.6 km/h 9.7 km/h 99% 0.0 mm 0 W/m2
03:18 5.3 °C 5.2 °C 1018.8 hPa NW 3.5 km/h 8.7 km/h 99% 0.0 mm 0 W/m2
03:23 5.4 °C 5.3 °C 1019.2 hPa NW 5.0 km/h 13.4 km/h 99% 0.0 mm 0 W/m2
03:28 5.4 °C 5.3 °C 1019.2 hPa NNW 3.5 km/h 13.4 km/h 99% 0.0 mm 0 W/m2
03:33 5.4 °C 5.3 °C 1019.2 hPa NNW 6.1 km/h 11.1 km/h 99% 0.0 mm 0 W/m2
03:38 5.5 °C 5.3 °C 1018.8 hPa NNW 5.0 km/h 9.7 km/h 99% 0.0 mm 0 W/m2
03:43 5.4 °C 5.3 °C 1018.8 hPa NW 6.1 km/h 11.1 km/h 99% 0.0 mm 0 W/m2
03:48 5.4 °C 5.3 °C 1018.8 hPa NW 7.2 km/h 13.4 km/h 99% 0.0 mm 0 W/m2
03:53 5.5 °C 5.3 °C 1018.8 hPa NW 5.0 km/h 13.4 km/h 99% 0.0 mm 0 W/m2
03:58 5.5 °C 5.3 °C 1018.8 hPa NNW 8.7 km/h 12.2 km/h 99% 0.0 mm 0 W/m2
04:03 5.5 °C 5.3 °C 1018.8 hPa NW 6.1 km/h 12.2 km/h 99% 0.0 mm 0 W/m2
04:08 5.3 °C 5.2 °C 1018.8 hPa NW 6.1 km/h 14.8 km/h 99% 0.0 mm 0 W/m2
04:13 5.2 °C 5.1 °C 1018.8 hPa NW 7.2 km/h 14.8 km/h 99% 0.0 mm 0 W/m2
04:18 5.1 °C 4.9 °C 1018.5 hPa NNW 7.2 km/h 14.8 km/h 99% 0.0 mm 0 W/m2
04:23 5.1 °C 4.9 °C 1018.5 hPa NW 7.2 km/h 15.8 km/h 99% 0.0 mm 0 W/m2
04:28 5.0 °C 4.8 °C 1018.5 hPa NW 6.1 km/h 15.8 km/h 99% 0.0 mm 0 W/m2
04:33 5.0 °C 4.8 °C 1018.5 hPa NW 6.1 km/h 13.4 km/h 99% 0.0 mm 0 W/m2
04:38 4.9 °C 4.8 °C 1018.5 hPa NNW 6.1 km/h 13.4 km/h 99% 0.0 mm 0 W/m2
04:43 4.9 °C 4.8 °C 1018.2 hPa NNW 5.0 km/h 13.4 km/h 99% 0.0 mm 0 W/m2
04:48 4.9 °C 4.8 °C 1018.5 hPa NNW 1.1 km/h 13.4 km/h 99% 0.0 mm 0 W/m2
04:53 5.0 °C 4.8 °C 1018.5 hPa NW 7.2 km/h 12.2 km/h 99% 0.0 mm 0 W/m2
04:58 5.0 °C 4.8 °C 1018.5 hPa NW 5.0 km/h 12.2 km/h 99% 0.0 mm 0 W/m2
05:03 5.0 °C 4.8 °C 1018.2 hPa NW 6.1 km/h 13.4 km/h 99% 0.0 mm 0 W/m2
05:08 5.0 °C 4.8 °C 1018.2 hPa NW 8.7 km/h 13.4 km/h 99% 0.0 mm 0 W/m2
05:13 5.1 °C 4.9 °C 1018.2 hPa NNW 7.2 km/h 13.4 km/h 99% 0.0 mm 0 W/m2
05:18 5.0 °C 4.8 °C 1018.2 hPa NW 7.2 km/h 13.4 km/h 99% 0.0 mm 0 W/m2
05:23 5.0 °C 4.8 °C 1018.2 hPa NW 8.7 km/h 13.4 km/h 99% 0.0 mm 0 W/m2
05:28 5.0 °C 4.8 °C 1018.2 hPa NNW 8.7 km/h 13.4 km/h 99% 0.0 mm 0 W/m2
05:33 5.0 °C 4.8 °C 1018.2 hPa NNW 7.2 km/h 12.2 km/h 99% 0.0 mm 0 W/m2
05:38 5.0 °C 4.8 °C 1018.2 hPa NNW 6.1 km/h 14.8 km/h 99% 0.0 mm 0 W/m2
05:43 4.9 °C 4.8 °C 1018.2 hPa NNW 6.1 km/h 14.8 km/h 99% 0.0 mm 0 W/m2
05:48 4.8 °C 4.7 °C 1017.8 hPa NNW 5.0 km/h 11.1 km/h 99% 0.0 mm 0 W/m2
05:53 4.8 °C 4.7 °C 1017.8 hPa NW 7.2 km/h 12.2 km/h 99% 0.0 mm 0 W/m2
05:58 4.7 °C 4.6 °C 1017.8 hPa NW 7.2 km/h 12.2 km/h 99% 0.0 mm 0 W/m2
06:03 4.7 °C 4.6 °C 1018.2 hPa WNW 7.2 km/h 12.2 km/h 99% 0.0 mm 0 W/m2
06:08 4.8 °C 4.7 °C 1017.8 hPa NW 8.7 km/h 14.8 km/h 99% 0.0 mm 0 W/m2
06:13 4.9 °C 4.8 °C 1017.8 hPa NNW 9.7 km/h 14.8 km/h 99% 0.0 mm 0 W/m2
06:18 4.9 °C 4.8 °C 1017.8 hPa NNW 6.1 km/h 14.8 km/h 99% 0.0 mm 0 W/m2
06:23 4.9 °C 4.8 °C 1017.8 hPa NNW 7.2 km/h 14.8 km/h 99% 0.0 mm 0 W/m2
06:28 4.8 °C 4.7 °C 1017.5 hPa NNW 8.7 km/h 14.8 km/h 99% 0.0 mm 0 W/m2
06:33 4.9 °C 4.8 °C 1017.8 hPa NNW 8.7 km/h 12.2 km/h 99% 0.0 mm 0 W/m2
06:38 4.9 °C 4.8 °C 1017.8 hPa NNW 7.2 km/h 13.4 km/h 99% 0.0 mm 0 W/m2
06:43 4.9 °C 4.8 °C 1017.8 hPa NW 7.2 km/h 14.8 km/h 99% 0.0 mm 0 W/m2
06:48 4.9 °C 4.8 °C 1017.8 hPa NW 7.2 km/h 14.8 km/h 99% 0.0 mm 1 W/m2
06:53 5.0 °C 4.8 °C 1017.8 hPa NW 5.0 km/h 14.8 km/h 99% 0.0 mm 2 W/m2
06:58 4.9 °C 4.8 °C 1017.8 hPa NW 6.1 km/h 14.8 km/h 99% 0.0 mm 4 W/m2
07:03 4.9 °C 4.8 °C 1017.8 hPa NW 8.7 km/h 13.4 km/h 99% 0.0 mm 7 W/m2
07:08 4.9 °C 4.8 °C 1017.8 hPa NW 6.1 km/h 13.4 km/h 99% 0.0 mm 10 W/m2
07:13 4.9 °C 4.8 °C 1017.8 hPa NW 8.7 km/h 13.4 km/h 99% 0.0 mm 13 W/m2
07:18 5.0 °C 4.8 °C 1017.8 hPa NNW 5.0 km/h 13.4 km/h 99% 0.0 mm 58 W/m2
07:23 5.4 °C 5.3 °C 1017.5 hPa NNW 3.5 km/h 13.4 km/h 99% 0.0 mm 60 W/m2
07:28 5.6 °C 5.4 °C 1017.8 hPa NW 3.5 km/h 12.2 km/h 99% 0.0 mm 89 W/m2
07:33 5.9 °C 5.8 °C 1017.8 hPa NNW 7.2 km/h 12.2 km/h 99% 0.0 mm 101 W/m2
07:38 6.1 °C 5.8 °C 1017.8 hPa NNW 8.7 km/h 14.8 km/h 98% 0.0 mm 114 W/m2
07:43 6.4 °C 5.9 °C 1017.8 hPa NNW 7.2 km/h 14.8 km/h 97% 0.0 mm 128 W/m2
07:48 6.5 °C 5.9 °C 1017.8 hPa NW 11.1 km/h 13.4 km/h 96% 0.0 mm 141 W/m2
07:53 6.7 °C 5.9 °C 1017.8 hPa NW 6.1 km/h 13.4 km/h 95% 0.0 mm 153 W/m2
07:58 7.0 °C 5.9 °C 1017.8 hPa NW 8.7 km/h 13.4 km/h 93% 0.0 mm 158 W/m2
08:03 7.2 °C 6.0 °C 1017.8 hPa NW 11.1 km/h 15.8 km/h 92% 0.0 mm 177 W/m2
08:08 7.5 °C 6.1 °C 1017.8 hPa NW 11.1 km/h 15.8 km/h 91% 0.0 mm 188 W/m2
08:13 7.8 °C 6.4 °C 1017.8 hPa NNW 7.2 km/h 15.8 km/h 91% 0.0 mm 199 W/m2
08:18 8.2 °C 6.5 °C 1017.8 hPa NNW 7.2 km/h 14.8 km/h 89% 0.0 mm 211 W/m2
08:23 8.5 °C 6.6 °C 1017.8 hPa NNW 7.2 km/h 15.8 km/h 88% 0.0 mm 223 W/m2
08:41 9.1 °C 6.7 °C 1017.8 hPa NNW 6.1 km/h 13.4 km/h 85% 0.0 mm 275 W/m2
08:46 9.4 °C 7.0 °C 1017.8 hPa NNW 5.0 km/h 13.4 km/h 85% 0.0 mm 289 W/m2
08:51 9.7 °C 7.3 °C 1017.8 hPa NNW 2.6 km/h 11.1 km/h 85% 0.0 mm 301 W/m2
08:56 10.2 °C 7.6 °C 1017.8 hPa NW 3.5 km/h 8.7 km/h 84% 0.0 mm 310 W/m2
09:01 10.8 °C 8.2 °C 1017.8 hPa NW 1.1 km/h 7.2 km/h 84% 0.0 mm 320 W/m2
09:06 11.3 °C 8.2 °C 1017.5 hPa NNW 5.0 km/h 9.7 km/h 81% 0.0 mm 328 W/m2
09:11 11.4 °C 7.9 °C 1017.2 hPa NNW 1.1 km/h 11.1 km/h 79% 0.0 mm 334 W/m2
09:16 11.7 °C 8.2 °C 1017.2 hPa NNW 1.1 km/h 11.1 km/h 79% 0.0 mm 338 W/m2
09:21 12.4 °C 8.5 °C 1017.2 hPa North 2.6 km/h 9.7 km/h 77% 0.0 mm 337 W/m2
09:26 12.7 °C 8.4 °C 1017.2 hPa NNW 1.1 km/h 7.2 km/h 75% 0.0 mm 340 W/m2
09:31 12.8 °C 8.5 °C 1017.2 hPa NW 3.5 km/h 8.7 km/h 75% 0.0 mm 300 W/m2
09:36 13.0 °C 8.9 °C 1016.8 hPa NW 1.1 km/h 11.1 km/h 76% 0.0 mm 172 W/m2
09:41 13.2 °C 9.1 °C 1016.8 hPa NW 3.5 km/h 11.1 km/h 76% 0.0 mm 68 W/m2
09:46 13.4 °C 9.3 °C 1017.2 hPa NW 5.0 km/h 11.1 km/h 76% 0.0 mm 56 W/m2
09:51 13.7 °C 9.6 °C 1016.8 hPa NW 6.1 km/h 12.2 km/h 76% 0.0 mm 53 W/m2
09:56 14.2 °C 9.6 °C 1016.8 hPa NNW 7.2 km/h 15.8 km/h 74% 0.0 mm 51 W/m2
10:01 14.7 °C 9.9 °C 1016.8 hPa NNW 9.7 km/h 15.8 km/h 73% 0.0 mm 50 W/m2
10:06 15.1 °C 9.7 °C 1016.8 hPa NNW 7.2 km/h 15.8 km/h 70% 0.0 mm 50 W/m2
10:11 15.3 °C 9.7 °C 1016.8 hPa North 5.0 km/h 15.8 km/h 69% 0.0 mm 52 W/m2
10:16 15.5 °C 9.8 °C 1016.8 hPa North 8.7 km/h 15.8 km/h 69% 0.0 mm 56 W/m2
10:21 15.6 °C 9.7 °C 1016.8 hPa North 11.1 km/h 14.8 km/h 68% 0.0 mm 125 W/m2
10:26 16.0 °C 9.9 °C 1016.8 hPa North 5.0 km/h 14.8 km/h 67% 0.0 mm 325 W/m2
10:31 16.6 °C 10.2 °C 1016.8 hPa NNW 7.2 km/h 13.4 km/h 66% 0.0 mm 355 W/m2
10:36 17.2 °C 10.1 °C 1016.8 hPa North 7.2 km/h 11.1 km/h 63% 0.0 mm 200 W/m2
10:41 17.5 °C 10.4 °C 1016.8 hPa North 11.1 km/h 14.8 km/h 63% 0.0 mm 386 W/m2
10:46 17.6 °C 10.0 °C 1016.5 hPa North 6.1 km/h 14.8 km/h 61% 0.0 mm 391 W/m2
10:51 18.0 °C 10.1 °C 1016.5 hPa NNE 6.1 km/h 14.8 km/h 60% 0.0 mm 400 W/m2
10:56 17.8 °C 9.2 °C 1016.1 hPa NNE 9.7 km/h 17.2 km/h 57% 0.0 mm 402 W/m2
11:01 17.7 °C 9.1 °C 1016.5 hPa North 5.0 km/h 17.2 km/h 57% 0.0 mm 401 W/m2
11:06 17.8 °C 9.9 °C 1016.1 hPa North 9.7 km/h 15.8 km/h 60% 0.0 mm 408 W/m2
11:11 17.8 °C 9.7 °C 1016.5 hPa North 7.2 km/h 15.8 km/h 59% 0.0 mm 409 W/m2
11:16 17.8 °C 9.4 °C 1016.1 hPa North 9.7 km/h 18.3 km/h 58% 0.0 mm 409 W/m2
11:21 18.0 °C 9.4 °C 1016.1 hPa North 11.1 km/h 18.3 km/h 57% 0.0 mm 411 W/m2
11:26 18.4 °C 9.7 °C 1016.1 hPa NNW 9.7 km/h 17.2 km/h 57% 0.0 mm 414 W/m2
11:31 18.5 °C 9.3 °C 1015.8 hPa Calm   15.8 km/h 55% 0.0 mm 414 W/m2
11:36 18.4 °C 9.2 °C 1015.8 hPa NNW 2.6 km/h 14.8 km/h 55% 0.0 mm 413 W/m2
11:41 18.4 °C 9.5 °C 1015.8 hPa NW 12.2 km/h 20.9 km/h 56% 0.0 mm 411 W/m2
11:46 18.9 °C 10.2 °C 1016.1 hPa Calm   20.9 km/h 57% 0.0 mm 414 W/m2
11:51 19.1 °C 9.3 °C 1016.1 hPa NNW 8.7 km/h 21.9 km/h 53% 0.0 mm 414 W/m2
11:56 18.9 °C 9.1 °C 1015.8 hPa NW 12.2 km/h 21.9 km/h 53% 0.0 mm 407 W/m2
12:01 19.1 °C 9.0 °C 1015.8 hPa NW 14.8 km/h 20.9 km/h 52% 0.0 mm 394 W/m2
12:06 19.1 °C 9.0 °C 1015.5 hPa NW 11.1 km/h 20.9 km/h 52% 0.0 mm 400 W/m2
12:11 19.3 °C 8.9 °C 1015.5 hPa NNW 6.1 km/h 20.9 km/h 51% 0.0 mm 392 W/m2
12:16 19.1 °C 8.4 °C 1015.5 hPa NNW 12.2 km/h 21.9 km/h 50% 0.0 mm 404 W/m2
12:21 19.0 °C 8.7 °C 1015.5 hPa NNW 9.7 km/h 21.9 km/h 51% 0.0 mm 401 W/m2
12:26 19.6 °C 9.5 °C 1015.1 hPa NNW 11.1 km/h 21.9 km/h 52% 0.0 mm 395 W/m2
12:31 19.7 °C 9.6 °C 1015.1 hPa NNW 7.2 km/h 19.5 km/h 52% 0.0 mm 390 W/m2
12:36 19.7 °C 9.3 °C 1015.1 hPa NNW 7.2 km/h 21.9 km/h 51% 0.0 mm 388 W/m2
12:41 19.4 °C 8.7 °C 1014.8 hPa NNW 11.1 km/h 27.0 km/h 50% 0.0 mm 382 W/m2
12:46 19.5 °C 9.4 °C 1014.8 hPa NNW 5.0 km/h 27.0 km/h 52% 0.0 mm 369 W/m2
12:51 19.6 °C 9.5 °C 1014.8 hPa NNW 8.7 km/h 20.9 km/h 52% 0.0 mm 367 W/m2
12:56 19.4 °C 9.3 °C 1014.8 hPa NW 8.7 km/h 21.9 km/h 52% 0.0 mm 361 W/m2
13:01 19.3 °C 9.2 °C 1014.8 hPa NW 7.2 km/h 24.5 km/h 52% 0.0 mm 361 W/m2
13:06 19.2 °C 8.8 °C 1015.1 hPa NW 14.8 km/h 29.4 km/h 51% 0.0 mm 345 W/m2
13:11 19.1 °C 8.7 °C 1014.8 hPa NW 12.2 km/h 29.4 km/h 51% 0.0 mm 341 W/m2
13:16 19.2 °C 9.1 °C 1014.8 hPa NW 9.7 km/h 29.4 km/h 52% 0.0 mm 333 W/m2
13:21 19.2 °C 8.8 °C 1014.4 hPa NW 11.1 km/h 28.0 km/h 51% 0.0 mm 334 W/m2
13:26 19.5 °C 9.4 °C 1014.4 hPa NNW 11.1 km/h 28.0 km/h 52% 0.0 mm 326 W/m2
13:31 19.3 °C 9.2 °C 1014.4 hPa NNW 7.2 km/h 21.9 km/h 52% 0.0 mm 303 W/m2
13:36 19.2 °C 9.4 °C 1014.1 hPa NNW 15.8 km/h 27.0 km/h 53% 0.0 mm 259 W/m2
13:41 19.2 °C 9.7 °C 1014.1 hPa NNW 11.1 km/h 27.0 km/h 54% 0.0 mm 198 W/m2
13:46 19.6 °C 10.1 °C 1014.1 hPa NNW 11.1 km/h 27.0 km/h 54% 0.0 mm 155 W/m2
13:51 20.0 °C 10.2 °C 1014.1 hPa NNW 11.1 km/h 23.3 km/h 53% 0.0 mm 113 W/m2
13:56 19.7 °C 9.6 °C 1014.1 hPa NNW 12.2 km/h 24.5 km/h 52% 0.0 mm 68 W/m2
14:01 19.6 °C 9.8 °C 1014.1 hPa NNW 18.3 km/h 24.5 km/h 53% 0.0 mm 61 W/m2
14:06 19.7 °C 10.2 °C 1013.8 hPa NNW 13.4 km/h 24.5 km/h 54% 0.0 mm 62 W/m2
14:11 19.7 °C 9.9 °C 1013.8 hPa NNW 12.2 km/h 24.5 km/h 53% 0.0 mm 61 W/m2
14:16 19.7 °C 9.9 °C 1013.4 hPa NNW 9.7 km/h 24.5 km/h 53% 0.0 mm 61 W/m2
14:21 19.5 °C 9.4 °C 1013.4 hPa NNW 13.4 km/h 25.6 km/h 52% 0.0 mm 62 W/m2
14:26 19.7 °C 10.2 °C 1013.4 hPa NNW 20.9 km/h 27.0 km/h 54% 0.0 mm 64 W/m2
14:31 19.7 °C 9.9 °C 1013.4 hPa NW 14.8 km/h 27.0 km/h 53% 0.0 mm 64 W/m2
14:36 19.9 °C 10.1 °C 1013.4 hPa NNW 14.8 km/h 27.0 km/h 53% 0.0 mm 65 W/m2
14:41 19.7 °C 9.6 °C 1013.1 hPa NNW 17.2 km/h 33.1 km/h 52% 0.0 mm 63 W/m2
14:46 19.2 °C 9.7 °C 1013.1 hPa NNW 14.8 km/h 33.1 km/h 54% 0.0 mm 64 W/m2
14:51 18.9 °C 9.4 °C 1013.1 hPa NNW 24.5 km/h 39.3 km/h 54% 0.0 mm 64 W/m2
14:56 18.7 °C 9.5 °C 1013.4 hPa NNW 18.3 km/h 39.3 km/h 55% 0.0 mm 63 W/m2
15:01 18.8 °C 9.6 °C 1013.4 hPa NNW 17.2 km/h 39.3 km/h 55% 0.0 mm 67 W/m2
15:06 19.0 °C 9.5 °C 1013.4 hPa NW 9.7 km/h 33.1 km/h 54% 0.0 mm 93 W/m2
15:11 19.2 °C 9.1 °C 1013.4 hPa North 25.6 km/h 33.1 km/h 52% 0.0 mm 161 W/m2
15:16 19.0 °C 8.7 °C 1013.4 hPa North 14.8 km/h 33.1 km/h 51% 0.0 mm 184 W/m2
15:21 18.9 °C 8.8 °C 1013.4 hPa NNW 7.2 km/h 33.1 km/h 52% 0.0 mm 176 W/m2
15:26 19.0 °C 8.3 °C 1013.4 hPa NNW 13.4 km/h 24.5 km/h 50% 0.0 mm 167 W/m2
15:31 19.0 °C 8.3 °C 1013.1 hPa NNW 13.4 km/h 25.6 km/h 50% 0.0 mm 157 W/m2
15:36 19.1 °C 8.7 °C 1013.1 hPa NNW 20.9 km/h 27.0 km/h 51% 0.0 mm 148 W/m2
15:41 19.0 °C 8.3 °C 1013.1 hPa NNW 9.7 km/h 27.0 km/h 50% 0.0 mm 137 W/m2
15:46 18.8 °C 8.2 °C 1013.4 hPa NNW 15.8 km/h 27.0 km/h 50% 0.0 mm 125 W/m2
15:51 18.3 °C 8.3 °C 1013.1 hPa NNW 14.8 km/h 21.9 km/h 52% 0.0 mm 105 W/m2
15:56 17.9 °C 8.2 °C 1013.1 hPa NW 7.2 km/h 21.9 km/h 53% 0.0 mm 52 W/m2
16:01 17.5 °C 8.1 °C 1013.1 hPa NNW 7.2 km/h 18.3 km/h 54% 0.0 mm 46 W/m2
16:05 17.2 °C 8.1 °C 1013.1 hPa NNW 9.7 km/h 17.2 km/h 55% 0.0 mm 42 W/m2
16:11 17.1 °C 8.3 °C 1013.1 hPa NNW 6.1 km/h 17.2 km/h 56% 0.0 mm 41 W/m2
16:16 17.0 °C 8.2 °C 1013.1 hPa NNW 11.1 km/h 19.5 km/h 56% 0.0 mm 39 W/m2
16:21 16.8 °C 8.5 °C 1012.8 hPa NW 7.2 km/h 20.9 km/h 58% 0.0 mm 46 W/m2
16:26 17.3 °C 8.7 °C 1012.8 hPa NNW 8.7 km/h 20.9 km/h 57% 0.0 mm 55 W/m2
16:31 17.9 °C 8.7 °C 1012.8 hPa NNW 13.4 km/h 15.8 km/h 55% 0.0 mm 65 W/m2
16:36 17.8 °C 8.7 °C 1012.8 hPa NNW 8.7 km/h 15.8 km/h 55% 0.0 mm 40 W/m2
16:41 17.8 °C 8.7 °C 1013.1 hPa NNW 7.2 km/h 15.8 km/h 55% 0.0 mm 61 W/m2
16:46 17.9 °C 8.7 °C 1012.8 hPa North 7.2 km/h 15.8 km/h 55% 0.0 mm 56 W/m2
16:51 17.8 °C 8.4 °C 1012.8 hPa North 7.2 km/h 14.8 km/h 54% 0.0 mm 44 W/m2
16:56 17.6 °C 8.7 °C 1012.8 hPa North 2.6 km/h 14.8 km/h 56% 0.0 mm 23 W/m2
17:01 16.9 °C 8.8 °C 1012.8 hPa North 5.0 km/h 12.2 km/h 59% 0.0 mm 16 W/m2
17:06 16.5 °C 8.4 °C 1012.8 hPa NNW 2.6 km/h 17.2 km/h 59% 0.0 mm 12 W/m2
17:11 16.2 °C 8.7 °C 1012.8 hPa NNW 6.1 km/h 17.2 km/h 61% 0.0 mm 6 W/m2
17:16 16.0 °C 8.7 °C 1012.8 hPa NW 11.1 km/h 15.8 km/h 62% 0.0 mm 4 W/m2
17:21 15.8 °C 8.8 °C 1012.8 hPa NNW 5.0 km/h 15.8 km/h 63% 0.0 mm 1 W/m2
17:26 15.6 °C 8.8 °C 1012.8 hPa NNW 6.1 km/h 15.8 km/h 64% 0.0 mm 0 W/m2
17:31 15.6 °C 8.8 °C 1012.8 hPa NNW 7.2 km/h 15.8 km/h 64% 0.0 mm 0 W/m2
17:35 15.4 °C 8.6 °C 1012.8 hPa NW 5.0 km/h 15.8 km/h 64% 0.0 mm 0 W/m2
17:40 15.2 °C 8.7 °C 1012.8 hPa NNW 7.2 km/h 13.4 km/h 65% 0.0 mm 0 W/m2
17:45 15.1 °C 8.6 °C 1012.8 hPa NNW 3.5 km/h 12.2 km/h 65% 0.0 mm 0 W/m2
17:50 15.0 °C 8.5 °C 1012.8 hPa NNW 6.1 km/h 12.2 km/h 65% 0.0 mm 0 W/m2
17:56 14.9 °C 8.8 °C 1012.8 hPa NNW 7.2 km/h 13.4 km/h 67% 0.0 mm 0 W/m2
18:01 14.8 °C 8.7 °C 1012.8 hPa NNW 7.2 km/h 13.4 km/h 67% 0.0 mm 0 W/m2
18:06 14.9 °C 8.6 °C 1012.8 hPa NNW 5.0 km/h 11.1 km/h 66% 0.0 mm 0 W/m2
18:11 14.9 °C 8.6 °C 1012.8 hPa NNW 5.0 km/h 11.1 km/h 66% 0.0 mm 0 W/m2
18:16 14.7 °C 8.7 °C 1012.8 hPa North 5.0 km/h 9.7 km/h 67% 0.0 mm 0 W/m2
18:21 14.5 °C 8.7 °C 1012.8 hPa North 2.6 km/h 8.7 km/h 68% 0.0 mm 0 W/m2
18:26 14.5 °C 8.4 °C 1012.8 hPa North 1.1 km/h 9.7 km/h 67% 0.0 mm 0 W/m2
18:31 14.5 °C 8.4 °C 1012.8 hPa North 5.0 km/h 9.7 km/h 67% 0.0 mm 0 W/m2
18:36 14.4 °C 8.3 °C 1012.8 hPa Calm   8.7 km/h 67% 0.0 mm 0 W/m2
18:41 14.2 °C 8.2 °C 1012.8 hPa Calm   7.2 km/h 67% 0.0 mm 0 W/m2
18:47 14.0 °C 8.0 °C 1012.8 hPa North 2.6 km/h 6.1 km/h 67% 0.0 mm 0 W/m2
18:52 14.0 °C 8.0 °C 1013.1 hPa NNW 1.1 km/h 5.0 km/h 67% 0.0 mm 0 W/m2
18:57 13.9 °C 8.1 °C 1012.8 hPa Calm   5.0 km/h 68% 0.0 mm 0 W/m2
19:02 13.7 °C 7.9 °C 1012.8 hPa NNW 1.1 km/h 3.5 km/h 68% 0.0 mm 0 W/m2
19:07 13.7 °C 8.1 °C 1012.8 hPa Calm   2.6 km/h 69% 0.0 mm 0 W/m2
19:12 13.8 °C 8.0 °C 1012.8 hPa Calm   2.6 km/h 68% 0.0 mm 0 W/m2
19:13 13.9 °C 8.1 °C 1012.8 hPa Calm   2.6 km/h 68% 0.0 mm 0 W/m2
19:18 13.7 °C 7.9 °C 1012.8 hPa Calm     68% 0.0 mm 0 W/m2
19:23 13.5 °C 7.9 °C 1012.8 hPa Calm     69% 0.0 mm 0 W/m2
19:28 13.3 °C 7.9 °C 1012.8 hPa NW 1.1 km/h 5.0 km/h 70% 0.0 mm 0 W/m2
19:33 13.3 °C 7.9 °C 1012.8 hPa Calm   6.1 km/h 70% 0.0 mm 0 W/m2
19:43 13.0 °C 8.1 °C 1012.8 hPa Calm   8.7 km/h 72% 0.0 mm 0 W/m2
19:48 13.0 °C 8.3 °C 1012.8 hPa Calm   5.0 km/h 73% 0.0 mm 0 W/m2
19:53 13.0 °C 8.3 °C 1012.8 hPa Calm   5.0 km/h 73% 0.0 mm 0 W/m2
19:58 12.9 °C 8.2 °C 1012.8 hPa Calm   1.1 km/h 73% 0.0 mm 0 W/m2
20:03 12.9 °C 8.2 °C 1012.4 hPa East 1.1 km/h 2.6 km/h 73% 0.0 mm 0 W/m2
20:08 12.9 °C 8.2 °C 1012.4 hPa Calm   7.2 km/h 73% 0.0 mm 0 W/m2
20:13 12.8 °C 8.1 °C 1012.4 hPa Calm   7.2 km/h 73% 0.0 mm 0 W/m2
20:19 12.8 °C 8.1 °C 1012.4 hPa Calm   6.1 km/h 73% 0.0 mm 0 W/m2
20:25 13.0 °C 8.1 °C 1012.4 hPa Calm   6.1 km/h 72% 0.0 mm 0 W/m2
20:30 13.0 °C 8.1 °C 1012.4 hPa Calm   5.0 km/h 72% 0.0 mm 0 W/m2
20:35 13.2 °C 8.1 °C 1012.1 hPa Calm   8.7 km/h 71% 0.0 mm 0 W/m2
20:40 13.4 °C 8.1 °C 1012.4 hPa Calm   8.7 km/h 70% 0.0 mm 0 W/m2
20:46 13.3 °C 7.9 °C 1012.1 hPa Calm   5.0 km/h 70% 0.0 mm 0 W/m2
20:51 13.3 °C 7.7 °C 1012.1 hPa Calm   5.0 km/h 69% 0.0 mm 0 W/m2
20:56 13.4 °C 7.8 °C 1012.1 hPa NNE 1.1 km/h 5.0 km/h 69% 0.0 mm 0 W/m2
21:01 13.3 °C 7.7 °C 1012.1 hPa NNW 2.6 km/h 6.1 km/h 69% 0.0 mm 0 W/m2
21:06 13.4 °C 7.8 °C 1012.1 hPa North 3.5 km/h 7.2 km/h 69% 0.0 mm 0 W/m2
21:11 13.5 °C 7.9 °C 1011.7 hPa NNE 3.5 km/h 8.7 km/h 69% 0.0 mm 0 W/m2
21:16 13.8 °C 8.0 °C 1012.1 hPa North 6.1 km/h 9.7 km/h 68% 0.0 mm 0 W/m2
21:21 14.1 °C 7.8 °C 1012.1 hPa NNW 8.7 km/h 12.2 km/h 66% 0.0 mm 0 W/m2
21:26 14.5 °C 8.0 °C 1012.1 hPa North 7.2 km/h 18.3 km/h 65% 0.0 mm 0 W/m2
21:31 14.6 °C 7.9 °C 1012.1 hPa NNW 5.0 km/h 18.3 km/h 64% 0.0 mm 0 W/m2
21:36 14.7 °C 7.9 °C 1011.7 hPa NNW 6.1 km/h 13.4 km/h 64% 0.0 mm 0 W/m2
21:41 14.8 °C 8.1 °C 1011.7 hPa NW 12.2 km/h 15.8 km/h 64% 0.0 mm 0 W/m2
21:47 15.0 °C 8.0 °C 1011.7 hPa NW 6.1 km/h 15.8 km/h 63% 0.0 mm 0 W/m2
21:52 15.1 °C 8.1 °C 1011.4 hPa NW 8.7 km/h 15.8 km/h 63% 0.0 mm 0 W/m2
22:10 15.1 °C 8.1 °C 1011.4 hPa NNW 11.1 km/h 18.3 km/h 63% 0.0 mm 0 W/m2
22:16 15.2 °C 8.2 °C 1011.1 hPa NNW 13.4 km/h 19.5 km/h 63% 0.0 mm 0 W/m2
22:21 15.2 °C 8.2 °C 1011.1 hPa NW 13.4 km/h 19.5 km/h 63% 0.0 mm 0 W/m2
22:26 15.2 °C 8.2 °C 1011.1 hPa NNW 8.7 km/h 19.5 km/h 63% 0.0 mm 0 W/m2
22:31 15.2 °C 8.2 °C 1011.1 hPa NNW 6.1 km/h 19.5 km/h 63% 0.0 mm 0 W/m2
22:36 15.2 °C 8.2 °C 1011.1 hPa NNW 8.7 km/h 19.5 km/h 63% 0.0 mm 0 W/m2
22:41 15.2 °C 8.4 °C 1011.1 hPa NNW 9.7 km/h 17.2 km/h 64% 0.0 mm 0 W/m2
22:46 15.2 °C 8.4 °C 1011.1 hPa NNW 11.1 km/h 17.2 km/h 64% 0.0 mm 0 W/m2
22:51 15.3 °C 8.6 °C 1011.1 hPa NNW 8.7 km/h 19.5 km/h 64% 0.0 mm 0 W/m2
22:56 15.3 °C 8.6 °C 1011.1 hPa NNW 11.1 km/h 23.3 km/h 64% 0.0 mm 0 W/m2
23:01 15.3 °C 8.6 °C 1010.7 hPa NNW 9.7 km/h 23.3 km/h 64% 0.0 mm 0 W/m2
23:06 15.2 °C 8.7 °C 1010.4 hPa NNW 11.1 km/h 19.5 km/h 65% 0.0 mm 0 W/m2
23:11 15.2 °C 8.7 °C 1010.7 hPa NNW 12.2 km/h 19.5 km/h 65% 0.0 mm 0 W/m2
23:16 15.4 °C 8.6 °C 1010.4 hPa NNW 13.4 km/h 30.6 km/h 64% 0.0 mm 0 W/m2
23:21 15.5 °C 8.7 °C 1010.4 hPa NNW 11.1 km/h 30.6 km/h 64% 0.0 mm 0 W/m2
23:26 15.5 °C 8.9 °C 1010.0 hPa NNW 14.8 km/h 25.6 km/h 65% 0.0 mm 0 W/m2
23:31 15.5 °C 8.9 °C 1010.0 hPa NNW 14.8 km/h 31.7 km/h 65% 0.0 mm 0 W/m2
23:36 15.4 °C 8.8 °C 1010.0 hPa NNW 14.8 km/h 31.7 km/h 65% 0.0 mm 0 W/m2
23:41 15.5 °C 8.9 °C 1010.0 hPa NNW 19.5 km/h 29.4 km/h 65% 0.0 mm 0 W/m2
23:46 15.5 °C 8.9 °C 1010.0 hPa North 19.5 km/h 29.4 km/h 65% 0.0 mm 0 W/m2
23:51 15.6 °C 9.1 °C 1010.0 hPa North 13.4 km/h 31.7 km/h 65% 0.0 mm 0 W/m2
23:56 15.6 °C 9.3 °C 1010.0 hPa NNW 11.1 km/h 35.6 km/h 66% 0.0 mm 0 W/m2
Northern Hawkes Bay. New Zealand Historic Data
Compliments of Weather Underground - 2.25 mb